Terminal Aerodrome Forecast
Issued by NWS Austin/San Antonio, TX

Home | Current Version | Previous Version | Text Only | Print | Product List | Glossary On
Versions: 1 2 3 4 5 6 7 8 9 10 11 12 13 14 15 16 17 18 19 20 21 22 23 24
000
FTUS44 KEWX 271024 AAB
TAFDRT
TAF AMD
KDRT 271024Z 2710/2806 10006KT P6SM SCT020
     FM271400 31010KT P6SM SCT025
     FM271900 32013KT P6SM SKC
     FM280200 08007KT P6SM SKC=

USA.gov is the U.S. government's official web portal to all federal, state and local government web resources and services.